Whitman, North Dakota
Current Conditions -  °F | °C
As of 12:58 PM on Tuesday 21 Oct 2014 (Local Time) from KRDR Reporting Station
Clear Clear  
Wind Chill: 60°   Ceiling: Unl
Heat Index: 60°   Visibility: 10mi
Dew Point: 43°   Wind: 23mph
Humidity: 53%   Direction: 150°SSE
Pressure: 29.93"   Gusts: 29mph
Location:  48.0481°N, 98.1268°W
Report Text: KRDR 211758Z AUTO 15020G25KT 10SM CLR 16/06 A2993 RMK AO2 PK WND 17027/34 SLP144 T01580061 10158 20023 57019
Loading
Personal Weather Stations






























Interactive Weather Map
Tropical Storm Tracking
New forecast layout! Learn more

10-Day Weather Forecast

Advertisements
Track Severe Weather on mobile